Hovedside
METAR-TAF:

METAR-TAF

Lufthavner :

Léopold Sédar Senghor internasjonale lufthavn

Dakar, Senegal

breddegrad: 14-44N, lengdegrad: 017-30W, høyde over havet: 27 m

Gjeldene værobservasjon

Denne rapporten ble laget for 3 timer og 17 minutter siden, klokken 09:00 UTC
Vind 10 kt fra Nord
Temperatur 22°C
Luftfuktighet 69%
Trykk 1017 hPa
Sikt 10 km eller mer
ingen skyer under 1500 m og ingen bygeskyer

METAR: GOOY 180900Z 36010KT CAVOK 22/16 Q1017

Tid: 12:17 (12:17 UTC)

Varsel

Denne rapporten ble laget for 47 minutter siden, klokken 11:30 UTC
Varsel gyldig fra 18. klokken 12 UTC til 19. klokken 18 UTC
Vind 12 kt fra Nordøst
Sikt 10 km eller mer
ingen skyer under 1500 m og ingen bygeskyer

TAF: GOOY 181130Z 1812/1918 04012KT CAVOK

Værobservasjoner og værvarsel for over 4000 flyplasser (METAR- og TAF-rapporter).

Tilgjengelige stasjoner er representert av de røde og gule prikkene på kartet.

Hold musepekeren over prikken for å se navnet på stasjonen.

Klikk så for å se værobservasjoner og -varsler.

For å forandre kartet kan du klikke på den grønne knappen med svart kryss for å zoome inn, på den grønne knappen med strek for å zoome ut, eller på de grønne pilene for å se tilstøtende kart.


METAR-TAF: